Time;durP1;ratioP1;P1;durP2;ratioP2;P2;SDS_P1;SDS_P2;PMS_P1;PMS_P2;Temp;Humidity;BMP_temperature;BMP_pressure;BME280_temperature;BME280_humidity;BME280_pressure;Samples;Min_cycle;Max_cycle;Signal;HPM_P1;HPM_P2
2020/12/09 00:01:54;;;;;;;109.68;24.83;;;-0.10;99.90;;;;;;4980141;28;20054;-70
2020/12/09 00:04:23;;;;;;;100.13;21.55;;;-0.10;99.90;;;;;;4980432;28;20101;-70
2020/12/09 00:06:51;;;;;;;137.00;26.10;;;0.00;99.90;;;;;;4980120;28;20030;-70
2020/12/09 00:09:19;;;;;;;144.55;25.88;;;0.00;99.90;;;;;;4980360;28;20023;-70
2020/12/09 00:11:53;;;;;;;150.57;26.17;;;0.00;99.90;;;;;;4979948;28;20323;-70
2020/12/09 00:14:22;;;;;;;199.98;26.83;;;0.10;99.90;;;;;;4979944;28;20057;-70
2020/12/09 00:16:50;;;;;;;142.23;27.50;;;0.10;99.90;;;;;;4979934;28;20106;-70
2020/12/09 00:22:39;;;;;;;181.98;27.88;;;0.10;99.90;;;;;;4980089;28;20327;-70
2020/12/09 00:25:07;;;;;;;107.28;24.67;;;0.10;99.90;;;;;;4995035;28;20407;-70
2020/12/09 00:27:35;;;;;;;170.05;26.52;;;0.10;99.90;;;;;;4994838;28;20031;-70
2020/12/09 00:30:10;;;;;;;116.25;24.17;;;0.20;99.90;;;;;;4979664;28;20019;-70
2020/12/09 00:32:38;;;;;;;163.35;26.52;;;0.20;99.90;;;;;;4979537;28;20323;-70
2020/12/09 00:35:07;;;;;;;182.15;24.85;;;0.20;99.90;;;;;;4980017;28;20026;-70
2020/12/09 00:37:35;;;;;;;174.15;28.42;;;0.20;99.90;;;;;;4979504;28;20022;-70
2020/12/09 00:40:05;;;;;;;184.75;30.45;;;0.10;99.90;;;;;;4994656;28;20025;-70
2020/12/09 00:42:33;;;;;;;180.88;24.15;;;0.20;99.90;;;;;;4979402;28;20049;-70
2020/12/09 00:45:01;;;;;;;189.73;26.20;;;0.20;99.90;;;;;;4978939;28;20034;-70
2020/12/09 00:47:29;;;;;;;187.82;27.73;;;0.20;99.90;;;;;;4994474;28;20030;-70
2020/12/09 00:52:41;;;;;;;175.77;24.67;;;0.20;99.90;;;;;;4979224;28;20026;-70
2020/12/09 00:55:09;;;;;;;198.48;27.23;;;0.20;99.90;;;;;;4979338;28;20023;-70
2020/12/09 00:57:38;;;;;;;154.18;22.23;;;0.20;99.90;;;;;;4994042;28;20065;-70
2020/12/09 01:00:08;;;;;;;95.88;21.60;;;0.20;99.90;;;;;;4994332;28;20031;-70
2020/12/09 01:02:35;;;;;;;162.13;23.48;;;0.20;99.90;;;;;;4994232;28;20027;-70
2020/12/09 01:05:03;;;;;;;159.35;25.45;;;0.20;99.90;;;;;;4994368;28;20026;-70
2020/12/09 01:07:31;;;;;;;153.50;22.23;;;0.20;99.90;;;;;;4979523;28;20030;-70
2020/12/09 01:09:58;;;;;;;162.40;24.48;;;0.20;99.90;;;;;;4994223;28;20046;-70
2020/12/09 01:12:25;;;;;;;140.07;25.30;;;0.20;99.90;;;;;;4993909;28;20062;-70
2020/12/09 01:14:53;;;;;;;123.63;21.95;;;0.20;99.90;;;;;;4979605;28;20112;-70
2020/12/09 01:17:20;;;;;;;143.63;25.40;;;0.20;99.90;;;;;;4978826;28;20023;-70
2020/12/09 01:19:47;;;;;;;132.40;23.35;;;0.30;99.90;;;;;;4979338;28;20019;-70
2020/12/09 01:22:16;;;;;;;132.38;21.73;;;0.30;99.90;;;;;;4979509;28;20027;-70
2020/12/09 01:24:44;;;;;;;79.28;21.23;;;0.30;99.90;;;;;;4979234;28;20034;-70
2020/12/09 01:27:12;;;;;;;117.38;23.45;;;0.30;99.90;;;;;;4993780;28;20023;-70
2020/12/09 01:29:40;;;;;;;128.32;23.30;;;0.30;99.90;;;;;;4979126;28;20360;-70
2020/12/09 01:32:07;;;;;;;132.80;25.35;;;0.30;99.90;;;;;;4978486;28;20027;-70
2020/12/09 01:34:34;;;;;;;103.22;21.15;;;0.30;99.90;;;;;;4993631;28;20114;-70
2020/12/09 01:37:01;;;;;;;99.70;25.45;;;0.30;99.90;;;;;;4993634;28;20118;-70
2020/12/09 01:39:29;;;;;;;122.40;22.73;;;0.30;99.90;;;;;;4978503;28;20442;-70
2020/12/09 01:41:58;;;;;;;104.18;21.88;;;0.30;99.90;;;;;;4978347;28;20050;-70
2020/12/09 01:44:26;;;;;;;86.38;21.65;;;0.20;99.90;;;;;;4978433;28;20023;-70
2020/12/09 01:46:56;;;;;;;90.30;20.63;;;0.30;99.90;;;;;;4978593;28;20363;-70
2020/12/09 01:49:23;;;;;;;79.82;21.33;;;0.20;99.90;;;;;;4993437;28;20415;-70
2020/12/09 01:51:51;;;;;;;93.07;19.75;;;0.20;99.90;;;;;;4993248;28;20082;-70
2020/12/09 01:54:18;;;;;;;77.53;21.38;;;0.20;99.90;;;;;;4978379;28;20035;-70
2020/12/09 01:57:02;;;;;;;53.00;18.55;;;0.30;99.90;;;;;;4977282;28;20134;-70
2020/12/09 01:59:30;;;;;;;99.10;25.17;;;0.30;99.90;;;;;;4977884;28;20134;-70
2020/12/09 02:01:57;;;;;;;89.97;20.27;;;0.30;99.90;;;;;;4993226;28;20027;-70
2020/12/09 02:04:24;;;;;;;113.75;21.88;;;0.30;99.90;;;;;;4978170;28;20046;-70
2020/12/09 02:06:56;;;;;;;128.60;23.08;;;0.30;99.90;;;;;;4992749;28;20065;-70
2020/12/09 02:09:24;;;;;;;119.90;23.17;;;0.30;99.90;;;;;;4978508;28;20055;-70
2020/12/09 02:11:53;;;;;;;98.28;22.23;;;0.30;99.90;;;;;;4977829;28;20026;-70
2020/12/09 02:14:21;;;;;;;150.02;22.45;;;0.30;99.90;;;;;;4977963;28;20696;-70
2020/12/09 02:16:57;;;;;;;108.38;22.15;;;0.30;99.90;;;;;;4977858;28;20019;-70
2020/12/09 02:19:25;;;;;;;120.95;23.60;;;0.30;99.90;;;;;;4978420;28;20029;-70
2020/12/09 02:21:53;;;;;;;133.68;24.70;;;0.40;99.90;;;;;;4977778;28;20113;-70
2020/12/09 02:24:21;;;;;;;91.88;21.40;;;0.40;99.90;;;;;;4978455;28;20034;-70
2020/12/09 02:26:50;;;;;;;83.60;22.38;;;0.40;99.90;;;;;;4977751;28;20029;-70
2020/12/09 02:29:17;;;;;;;95.82;20.88;;;0.40;99.90;;;;;;4977646;28;20082;-70
2020/12/09 02:31:45;;;;;;;166.82;28.08;;;0.40;99.90;;;;;;4977610;28;20015;-70
2020/12/09 02:34:13;;;;;;;116.90;21.52;;;0.40;99.90;;;;;;4978353;28;20046;-70
2020/12/09 02:36:40;;;;;;;118.20;24.65;;;0.40;99.90;;;;;;4977671;28;20018;-70
2020/12/09 02:39:08;;;;;;;83.95;21.88;;;0.40;99.90;;;;;;4992738;28;20030;-70
2020/12/09 02:41:36;;;;;;;87.72;21.88;;;0.40;99.90;;;;;;4992800;28;20133;-70
2020/12/09 02:44:03;;;;;;;85.10;20.15;;;0.40;99.90;;;;;;4978037;28;20050;-70
2020/12/09 02:46:30;;;;;;;76.43;22.35;;;0.40;99.90;;;;;;4977588;28;20023;-70
2020/12/09 02:48:58;;;;;;;79.30;22.35;;;0.50;99.90;;;;;;4978293;28;20023;-70
2020/12/09 02:51:26;;;;;;;90.43;20.80;;;0.50;99.90;;;;;;4978044;28;20054;-70
2020/12/09 02:53:53;;;;;;;108.13;21.58;;;0.50;99.90;;;;;;4992590;28;20038;-70
2020/12/09 02:56:20;;;;;;;143.13;21.42;;;0.50;99.90;;;;;;4977390;28;20023;-70
2020/12/09 02:58:48;;;;;;;91.38;21.83;;;0.60;99.90;;;;;;4977287;28;20046;-70
2020/12/09 03:01:15;;;;;;;104.53;24.73;;;0.60;99.90;;;;;;4977415;28;20019;-70
2020/12/09 03:03:46;;;;;;;106.78;23.25;;;0.60;99.90;;;;;;4992553;28;20058;-70
2020/12/09 03:06:15;;;;;;;158.50;25.23;;;0.60;99.90;;;;;;4977663;28;20073;-70
2020/12/09 03:08:43;;;;;;;112.47;24.58;;;0.70;99.90;;;;;;4980767;28;20054;-70
2020/12/09 03:11:11;;;;;;;124.45;24.15;;;0.70;99.90;;;;;;4981120;28;20046;-70
2020/12/09 03:13:38;;;;;;;122.85;22.38;;;0.70;99.90;;;;;;4996210;28;20061;-70
2020/12/09 03:16:06;;;;;;;149.63;22.40;;;0.70;99.90;;;;;;4996211;28;20023;-70
2020/12/09 03:18:34;;;;;;;151.18;24.45;;;0.70;99.90;;;;;;4981190;28;20025;-70
2020/12/09 03:21:06;;;;;;;102.18;21.17;;;0.80;99.90;;;;;;4980762;28;20031;-70
2020/12/09 03:23:35;;;;;;;113.05;23.50;;;0.70;99.90;;;;;;4980923;28;20110;-70
2020/12/09 03:26:03;;;;;;;91.30;21.60;;;0.80;99.90;;;;;;4980844;28;20322;-70
2020/12/09 03:28:30;;;;;;;85.45;24.02;;;0.80;99.90;;;;;;4996513;28;20085;-70
2020/12/09 03:30:58;;;;;;;87.40;23.17;;;0.80;99.90;;;;;;4995931;28;20068;-70
2020/12/09 03:33:26;;;;;;;84.28;23.88;;;0.80;99.90;;;;;;4981013;28;20026;-70
2020/12/09 03:35:54;;;;;;;174.48;23.30;;;0.80;99.90;;;;;;4995159;28;20319;-70
2020/12/09 03:38:21;;;;;;;84.40;22.27;;;0.80;99.90;;;;;;4980803;28;20031;-70
2020/12/09 03:40:48;;;;;;;103.53;24.45;;;0.80;99.90;;;;;;4981156;28;20420;-70
2020/12/09 03:43:17;;;;;;;86.53;22.70;;;0.80;99.90;;;;;;4995598;28;20027;-70
2020/12/09 03:45:44;;;;;;;95.65;22.50;;;0.80;99.90;;;;;;4980508;28;20033;-70
2020/12/09 03:48:12;;;;;;;80.97;21.92;;;0.80;99.90;;;;;;4995722;28;20023;-70
2020/12/09 03:50:40;;;;;;;102.65;24.13;;;0.80;99.90;;;;;;4995626;28;20026;-70
2020/12/09 03:53:07;;;;;;;83.93;21.67;;;0.90;99.90;;;;;;4980793;28;20027;-70
2020/12/09 03:55:35;;;;;;;81.45;22.88;;;0.90;99.90;;;;;;4980365;28;20023;-70
2020/12/09 03:58:03;;;;;;;85.97;22.55;;;0.90;99.90;;;;;;4994706;28;20466;-71
2020/12/09 04:00:30;;;;;;;96.05;24.02;;;0.90;99.90;;;;;;4980794;28;20027;-70
2020/12/09 04:02:57;;;;;;;81.35;23.70;;;0.90;99.90;;;;;;4995678;28;20026;-71
2020/12/09 04:05:25;;;;;;;68.53;23.85;;;0.90;99.90;;;;;;4980173;28;20327;-70
2020/12/09 04:07:53;;;;;;;81.63;21.98;;;0.90;99.90;;;;;;4995358;28;20023;-70
2020/12/09 04:10:20;;;;;;;99.43;26.90;;;0.90;99.90;;;;;;4995267;28;20030;-70
2020/12/09 04:12:48;;;;;;;74.63;22.30;;;0.90;99.90;;;;;;4980062;28;20139;-70
2020/12/09 04:15:16;;;;;;;74.97;23.83;;;0.90;99.90;;;;;;4979964;28;20023;-70
2020/12/09 04:17:44;;;;;;;90.88;23.10;;;0.90;99.90;;;;;;4995096;28;20044;-70
2020/12/09 04:20:15;;;;;;;79.38;23.80;;;0.90;99.90;;;;;;4994007;28;20331;-70
2020/12/09 04:22:43;;;;;;;76.80;21.42;;;0.90;99.90;;;;;;4981091;28;20307;-70
2020/12/09 04:25:10;;;;;;;77.75;22.70;;;0.90;99.90;;;;;;4979815;28;20026;-70
2020/12/09 04:27:37;;;;;;;102.55;23.40;;;1.00;99.90;;;;;;4980195;28;20034;-70
2020/12/09 04:30:05;;;;;;;113.85;24.15;;;0.90;99.90;;;;;;4994815;28;20053;-70
2020/12/09 04:32:37;;;;;;;78.18;22.73;;;1.00;99.90;;;;;;4979862;28;20394;-70
2020/12/09 04:35:05;;;;;;;80.13;24.48;;;1.00;99.90;;;;;;4979590;28;20074;-70
2020/12/09 04:37:32;;;;;;;80.30;24.02;;;1.00;99.90;;;;;;4980106;28;20098;-70
2020/12/09 04:40:00;;;;;;;72.22;23.10;;;1.00;99.90;;;;;;4979558;28;20081;-70
2020/12/09 04:42:28;;;;;;;67.50;23.13;;;1.00;99.90;;;;;;4979298;28;20023;-70
2020/12/09 04:44:56;;;;;;;59.13;22.65;;;1.00;99.90;;;;;;4979635;28;20077;-70
2020/12/09 04:47:43;;;;;;;75.95;24.40;;;1.00;99.90;;;;;;4979922;28;20051;-70
2020/12/09 04:50:13;;;;;;;71.40;21.80;;;1.00;99.90;;;;;;4979278;28;20442;-70
2020/12/09 04:52:43;;;;;;;65.25;21.98;;;1.00;99.90;;;;;;4979900;28;20314;-70
2020/12/09 04:55:17;;;;;;;57.42;21.70;;;1.00;99.90;;;;;;4979822;28;20030;-70
2020/12/09 04:58:11;;;;;;;53.78;21.42;;;1.00;99.90;;;;;;4978958;28;20098;-71
2020/12/09 05:00:44;;;;;;;57.95;22.80;;;1.00;99.90;;;;;;4979174;28;20106;-70
2020/12/09 05:03:19;;;;;;;57.95;23.20;;;1.00;99.90;;;;;;4979813;28;20147;-71
2020/12/09 05:05:48;;;;;;;65.40;23.05;;;1.00;99.90;;;;;;4994223;28;20038;-70
2020/12/09 05:08:21;;;;;;;60.67;24.10;;;1.00;99.90;;;;;;4978979;28;20029;-70
2020/12/09 05:10:52;;;;;;;62.70;22.75;;;1.10;99.90;;;;;;4979504;28;20074;-70
2020/12/09 05:13:27;;;;;;;61.88;23.05;;;1.10;99.90;;;;;;4978986;28;20031;-70
2020/12/09 05:15:58;;;;;;;68.05;21.98;;;1.10;99.90;;;;;;4978833;28;20069;-71
2020/12/09 05:18:44;;;;;;;58.55;23.17;;;1.10;99.90;;;;;;4978660;28;20089;-70
2020/12/09 05:21:18;;;;;;;58.95;22.08;;;1.10;99.90;;;;;;4979210;28;20023;-70
2020/12/09 05:23:57;;;;;;;60.67;22.33;;;1.10;99.90;;;;;;4978640;28;20058;-70
2020/12/09 05:26:30;;;;;;;56.13;22.15;;;1.10;99.90;;;;;;4978627;28;20027;-70
2020/12/09 05:29:13;;;;;;;66.75;21.52;;;1.10;99.90;;;;;;4978660;28;20030;-70
2020/12/09 05:31:43;;;;;;;68.78;22.17;;;1.00;99.90;;;;;;4978816;28;20050;-70
2020/12/09 05:34:25;;;;;;;68.57;22.80;;;1.00;99.90;;;;;;4978479;28;20045;-70
2020/12/09 05:36:55;;;;;;;87.95;23.55;;;1.00;99.90;;;;;;4993575;28;20022;-70
2020/12/09 05:39:23;;;;;;;66.28;21.67;;;1.00;99.90;;;;;;4978529;28;20442;-70
2020/12/09 05:41:51;;;;;;;63.65;21.73;;;1.00;99.90;;;;;;4978913;28;20089;-70
2020/12/09 05:44:21;;;;;;;58.72;20.98;;;1.00;99.90;;;;;;4993501;28;20019;-71
2020/12/09 05:47:04;;;;;;;62.78;23.80;;;1.00;99.90;;;;;;4978349;28;20023;-70
2020/12/09 05:49:37;;;;;;;58.53;22.02;;;1.00;99.90;;;;;;4978951;28;20026;-70
2020/12/09 05:52:10;;;;;;;62.70;21.95;;;1.00;99.90;;;;;;4993248;28;20029;-70
2020/12/09 05:54:43;;;;;;;65.53;24.30;;;1.00;99.90;;;;;;4993412;28;20322;-71
2020/12/09 05:57:15;;;;;;;61.50;22.65;;;1.00;99.90;;;;;;4978102;28;20052;-70
2020/12/09 05:59:47;;;;;;;70.47;23.20;;;1.00;99.90;;;;;;4978030;28;20097;-70
2020/12/09 06:02:17;;;;;;;71.05;22.42;;;1.00;99.90;;;;;;4977956;28;20423;-71
2020/12/09 06:04:50;;;;;;;67.03;21.77;;;1.00;99.90;;;;;;4978610;28;20030;-70
2020/12/09 06:07:19;;;;;;;59.70;22.98;;;1.00;99.90;;;;;;4978007;28;20435;-70
2020/12/09 06:10:06;;;;;;;62.85;22.55;;;1.00;99.90;;;;;;4978083;28;20300;-70
2020/12/09 06:12:53;;;;;;;65.32;22.45;;;1.00;99.90;;;;;;4992912;28;20078;-70
2020/12/09 06:15:21;;;;;;;;;;;1.00;99.90;;;;;;4978528;28;20049;-70
2020/12/09 06:18:10;;;;;;;59.72;22.27;;;1.00;99.90;;;;;;4977956;28;19906;-70
2020/12/09 06:20:39;;;;;;;60.40;23.67;;;1.10;99.90;;;;;;4977821;28;20023;-70
2020/12/09 06:23:15;;;;;;;68.88;24.30;;;1.10;99.90;;;;;;4977763;28;20026;-70
2020/12/09 06:25:49;;;;;;;65.50;24.23;;;1.10;99.90;;;;;;4978335;28;20019;-70
2020/12/09 06:28:19;;;;;;;67.45;23.65;;;1.10;99.90;;;;;;4978205;28;20046;-70
2020/12/09 06:30:48;;;;;;;73.95;21.92;;;1.10;99.90;;;;;;4978214;28;20023;-70
2020/12/09 06:33:37;;;;;;;67.00;21.42;;;1.10;99.90;;;;;;4977901;28;20034;-70
2020/12/09 06:36:15;;;;;;;63.58;20.52;;;1.10;99.90;;;;;;4977631;28;20023;-70
2020/12/09 06:39:11;;;;;;;79.70;23.33;;;1.10;99.90;;;;;;4978235;28;20023;-70
2020/12/09 06:41:41;;;;;;;64.57;23.10;;;1.00;99.90;;;;;;4978102;28;20023;-70
2020/12/09 06:44:14;;;;;;;64.38;21.15;;;1.10;99.90;;;;;;4981255;28;20026;-71
2020/12/09 06:46:45;;;;;;;73.22;22.05;;;1.00;99.90;;;;;;4982113;28;20467;-70
2020/12/09 06:49:30;;;;;;;69.03;25.42;;;1.00;99.90;;;;;;4981845;28;20327;-70
2020/12/09 06:52:05;;;;;;;75.97;28.05;;;1.00;99.90;;;;;;4981933;28;20037;-71
2020/12/09 06:54:51;;;;;;;69.88;23.27;;;1.10;99.90;;;;;;4982147;28;20466;-70
2020/12/09 06:57:29;;;;;;;67.28;23.05;;;1.00;99.90;;;;;;4981887;28;20042;-70
2020/12/09 07:00:17;;;;;;;68.60;23.00;;;1.00;99.90;;;;;;4981394;28;20054;-70
2020/12/09 07:02:47;;;;;;;74.75;25.38;;;1.10;99.90;;;;;;4981495;28;20105;-70
2020/12/09 07:05:16;;;;;;;61.42;24.25;;;1.00;99.90;;;;;;4981749;28;20026;-71
2020/12/09 07:07:51;;;;;;;62.33;22.80;;;1.10;99.90;;;;;;4981245;28;20427;-70
2020/12/09 07:10:19;;;;;;;61.72;21.88;;;1.10;99.90;;;;;;4996375;28;20300;-70
2020/12/09 07:13:00;;;;;;;67.32;25.65;;;1.10;99.90;;;;;;4981739;28;20066;-70
2020/12/09 07:15:28;;;;;;;81.63;29.73;;;1.10;99.90;;;;;;4981614;28;20023;-70
2020/12/09 07:17:56;;;;;;;67.38;25.92;;;1.10;99.90;;;;;;4981596;28;20019;-68
2020/12/09 07:20:25;;;;;;;66.05;24.42;;;1.10;99.90;;;;;;4980905;28;20023;-69
2020/12/09 07:22:53;;;;;;;60.30;23.02;;;1.10;99.90;;;;;;4981100;28;20034;-68
2020/12/09 07:25:21;;;;;;;65.50;23.60;;;1.10;99.90;;;;;;4980882;28;20027;-68
2020/12/09 07:27:49;;;;;;;62.15;22.85;;;1.10;99.90;;;;;;4980837;28;20532;-68
2020/12/09 07:30:19;;;;;;;52.88;20.13;;;1.10;99.90;;;;;;4981400;28;20118;-68
2020/12/09 07:32:48;;;;;;;56.22;21.88;;;1.10;99.90;;;;;;4980774;28;20054;-68
2020/12/09 07:35:17;;;;;;;63.08;23.45;;;1.10;99.90;;;;;;4980746;28;20023;-68
2020/12/09 07:37:49;;;;;;;61.15;24.85;;;1.10;99.90;;;;;;4980654;28;20407;-69
2020/12/09 07:40:28;;;;;;;55.22;22.35;;;1.20;99.90;;;;;;4980565;28;20464;-69
2020/12/09 07:43:13;;;;;;;56.85;22.20;;;1.20;99.90;;;;;;4981098;28;20031;-68
2020/12/09 07:45:44;;;;;;;59.53;22.10;;;1.20;99.90;;;;;;4980507;28;20026;-69
2020/12/09 07:48:13;;;;;;;53.47;20.70;;;1.20;99.90;;;;;;4995638;28;20038;-68
2020/12/09 07:50:42;;;;;;;52.25;19.48;;;1.20;99.90;;;;;;4980471;28;20034;-69
2020/12/09 07:53:14;;;;;;;53.45;21.75;;;1.20;99.90;;;;;;4980571;28;20019;-69
2020/12/09 07:55:42;;;;;;;55.85;20.35;;;1.20;99.90;;;;;;4980372;28;20031;-69
2020/12/09 07:58:11;;;;;;;56.90;22.02;;;1.20;99.90;;;;;;4980376;28;20042;-69
2020/12/09 08:00:47;;;;;;;48.28;19.90;;;1.30;99.90;;;;;;4980770;28;20023;-68
2020/12/09 08:03:24;;;;;;;51.60;21.35;;;1.20;99.90;;;;;;4980480;28;20101;-67
2020/12/09 08:05:53;;;;;;;50.92;19.70;;;1.30;99.90;;;;;;4980111;28;20059;-67
2020/12/09 08:08:22;;;;;;;52.08;19.83;;;1.30;99.90;;;;;;4980687;28;20320;-67
2020/12/09 08:10:51;;;;;;;53.70;19.73;;;1.30;99.90;;;;;;4980076;28;20101;-69
2020/12/09 08:13:26;;;;;;;50.45;20.20;;;1.20;99.90;;;;;;4980069;28;20031;-68
2020/12/09 08:16:13;;;;;;;51.58;18.58;;;1.30;99.90;;;;;;4979923;28;20328;-68
2020/12/09 08:18:44;;;;;;;56.40;21.77;;;1.30;99.90;;;;;;4980287;28;20023;-67
2020/12/09 08:21:12;;;;;;;50.65;20.15;;;1.30;99.90;;;;;;4979902;28;20031;-68
2020/12/09 08:23:50;;;;;;;47.08;19.65;;;1.30;99.90;;;;;;4980452;28;20038;-69
2020/12/09 08:26:33;;;;;;;51.13;20.15;;;1.30;99.90;;;;;;4980369;28;20026;-70
2020/12/09 08:29:01;;;;;;;49.25;18.98;;;1.30;99.90;;;;;;4979715;28;20038;-70
2020/12/09 08:31:28;;;;;;;48.88;19.30;;;1.30;99.90;;;;;;4979743;28;20031;-70
2020/12/09 08:33:56;;;;;;;46.95;18.95;;;1.30;99.90;;;;;;4979114;28;20031;-70
2020/12/09 08:36:24;;;;;;;57.22;20.75;;;1.30;99.90;;;;;;4980153;28;20466;-68
2020/12/09 08:39:01;;;;;;;53.25;19.92;;;1.30;99.90;;;;;;4979948;28;20026;-69
2020/12/09 08:41:34;;;;;;;52.35;20.10;;;1.30;99.90;;;;;;4994674;28;20415;-69
2020/12/09 08:44:03;;;;;;;50.65;18.77;;;1.30;99.90;;;;;;4980115;28;20322;-68
2020/12/09 08:46:32;;;;;;;47.22;20.65;;;1.30;99.90;;;;;;4979436;28;20085;-68
2020/12/09 08:49:00;;;;;;;52.92;20.38;;;1.30;99.90;;;;;;4979469;28;20110;-68
2020/12/09 08:51:33;;;;;;;54.85;21.13;;;1.30;99.90;;;;;;4979361;28;20125;-68
2020/12/09 08:54:05;;;;;;;51.88;18.48;;;1.30;99.90;;;;;;4979743;28;20019;-68
2020/12/09 08:56:35;;;;;;;52.17;20.83;;;1.30;99.90;;;;;;4979510;28;20117;-68
2020/12/09 08:59:03;;;;;;;52.88;20.17;;;1.30;99.90;;;;;;4978922;28;20117;-68
2020/12/09 09:01:36;;;;;;;57.95;21.70;;;1.30;99.90;;;;;;4979705;28;20098;-68
2020/12/09 09:04:08;;;;;;;54.90;19.73;;;1.30;99.90;;;;;;4979092;28;20030;-68
2020/12/09 09:06:36;;;;;;;58.42;21.67;;;1.30;99.90;;;;;;4979041;28;20034;-69
2020/12/09 09:09:03;;;;;;;88.82;31.60;;;1.30;99.90;;;;;;4979238;28;20027;-72
2020/12/09 09:11:31;;;;;;;98.72;36.53;;;1.40;99.90;;;;;;4994065;28;20533;-70
2020/12/09 09:13:59;;;;;;;63.60;25.90;;;1.40;99.90;;;;;;4994072;28;20090;-71
2020/12/09 09:16:27;;;;;;;57.30;21.48;;;1.40;99.90;;;;;;4994049;28;20030;-71
2020/12/09 09:18:55;;;;;;;51.03;18.65;;;1.40;99.90;;;;;;4979017;28;20023;-68
2020/12/09 09:21:24;;;;;;;56.00;21.42;;;1.40;99.90;;;;;;4979312;28;20105;-72
2020/12/09 09:23:52;;;;;;;57.17;20.42;;;1.40;99.90;;;;;;4994422;28;20058;-68
2020/12/09 09:26:20;;;;;;;53.40;20.98;;;1.40;99.90;;;;;;4978696;28;20027;-69
2020/12/09 09:28:47;;;;;;;59.55;21.42;;;1.50;99.90;;;;;;4978616;28;20027;-69
2020/12/09 09:31:15;;;;;;;52.42;20.35;;;1.50;99.90;;;;;;4979142;28;20050;-70
2020/12/09 09:33:43;;;;;;;54.88;20.13;;;1.50;99.90;;;;;;4978841;28;20358;-70
2020/12/09 09:36:11;;;;;;;52.88;20.50;;;1.50;99.90;;;;;;4993648;28;20054;-68
2020/12/09 09:38:40;;;;;;;56.90;19.98;;;1.50;99.90;;;;;;4978900;28;20049;-69
2020/12/09 09:41:08;;;;;;;56.10;21.20;;;1.50;99.90;;;;;;4978447;28;20094;-68
2020/12/09 09:43:35;;;;;;;50.60;19.45;;;1.50;99.90;;;;;;4978310;28;20030;-69
2020/12/09 09:46:03;;;;;;;55.40;21.05;;;1.50;99.90;;;;;;4978857;28;20098;-68
2020/12/09 09:48:31;;;;;;;54.17;20.23;;;1.50;99.90;;;;;;4978931;28;20038;-69
2020/12/09 09:50:59;;;;;;;57.75;20.30;;;1.50;99.90;;;;;;4978196;28;20427;-69
2020/12/09 09:53:26;;;;;;;50.92;19.55;;;1.60;99.90;;;;;;4993850;28;20171;-69
2020/12/09 09:55:53;;;;;;;52.95;20.40;;;1.60;99.90;;;;;;4978189;28;20085;-69
2020/12/09 09:58:21;;;;;;;54.90;20.10;;;1.60;99.90;;;;;;4993120;28;20057;-69
2020/12/09 10:00:48;;;;;;;57.38;18.13;;;1.70;99.90;;;;;;4978123;28;20415;-69
2020/12/09 10:03:16;;;;;;;54.38;21.05;;;1.70;99.90;;;;;;4978172;28;20033;-68
2020/12/09 10:05:44;;;;;;;49.65;18.52;;;1.70;99.90;;;;;;4978078;28;20044;-69
2020/12/09 10:08:11;;;;;;;52.92;19.17;;;1.80;99.90;;;;;;4978321;28;20383;-69
2020/12/09 10:10:39;;;;;;;50.13;19.48;;;1.80;99.90;;;;;;4978276;28;20037;-69
2020/12/09 10:13:07;;;;;;;52.10;18.75;;;1.80;99.90;;;;;;4978384;28;20110;-69
2020/12/09 10:15:34;;;;;;;53.13;19.38;;;1.70;99.90;;;;;;4977967;28;20367;-69
2020/12/09 10:18:01;;;;;;;51.78;19.40;;;1.80;99.90;;;;;;4977612;28;20077;-69
2020/12/09 10:20:29;;;;;;;48.22;18.38;;;1.80;99.90;;;;;;4993190;28;20023;-69
2020/12/09 10:22:56;;;;;;;46.03;17.65;;;1.80;99.90;;;;;;4978450;28;20030;-69
2020/12/09 10:25:24;;;;;;;46.42;18.20;;;1.90;99.90;;;;;;4977802;28;20026;-69
2020/12/09 10:27:51;;;;;;;44.95;18.05;;;1.90;99.90;;;;;;4977729;28;20334;-69
2020/12/09 10:30:19;;;;;;;46.58;18.30;;;1.90;99.90;;;;;;4978305;28;20026;-69
2020/12/09 10:32:47;;;;;;;40.13;16.88;;;1.90;99.90;;;;;;4992897;28;20035;-69
2020/12/09 10:35:14;;;;;;;43.92;18.10;;;2.00;99.90;;;;;;4977633;28;20058;-69
2020/12/09 10:37:42;;;;;;;44.80;16.83;;;2.00;99.90;;;;;;4977697;28;20061;-69
2020/12/09 10:40:10;;;;;;;44.85;18.30;;;1.90;99.90;;;;;;4978151;28;20022;-68
2020/12/09 10:42:37;;;;;;;45.70;17.05;;;2.00;99.90;;;;;;4978126;28;20022;-69
2020/12/09 10:45:06;;;;;;;45.08;17.15;;;2.00;99.90;;;;;;4977603;28;20102;-69
2020/12/09 10:47:34;;;;;;;55.78;19.00;;;2.00;99.90;;;;;;4978151;28;20022;-69
2020/12/09 10:50:01;;;;;;;43.80;15.98;;;2.00;99.90;;;;;;4978109;28;20027;-68
2020/12/09 10:52:30;;;;;;;58.33;20.38;;;2.00;99.90;;;;;;4977767;28;20046;-68
2020/12/09 10:54:57;;;;;;;49.58;19.58;;;2.10;99.90;;;;;;4978090;28;20026;-69
2020/12/09 10:57:25;;;;;;;50.53;20.83;;;2.10;99.90;;;;;;4977689;28;20049;-68
2020/12/09 10:59:54;;;;;;;49.05;17.15;;;2.10;99.90;;;;;;4977234;28;20049;-68
2020/12/09 11:02:22;;;;;;;44.42;18.02;;;2.10;99.90;;;;;;4977383;28;20023;-69
2020/12/09 11:04:49;;;;;;;83.63;28.23;;;2.20;99.90;;;;;;4977577;28;20031;-69
2020/12/09 11:07:17;;;;;;;49.90;18.48;;;2.20;99.90;;;;;;4992518;28;20035;-68
2020/12/09 11:09:45;;;;;;;44.22;17.63;;;2.20;99.90;;;;;;4977877;28;20025;-71
2020/12/09 11:12:12;;;;;;;45.72;17.60;;;2.20;99.90;;;;;;4977247;28;20022;-67
2020/12/09 11:14:40;;;;;;;47.72;18.17;;;2.20;99.90;;;;;;4977382;28;20027;-67
2020/12/09 11:17:08;;;;;;;46.17;17.73;;;2.20;99.90;;;;;;4977830;28;20054;-67
2020/12/09 11:19:35;;;;;;;59.28;23.27;;;2.20;99.90;;;;;;4977959;28;20022;-67
2020/12/09 11:22:04;;;;;;;47.58;17.15;;;2.20;99.90;;;;;;4977411;28;20358;-67
2020/12/09 11:24:32;;;;;;;48.97;18.30;;;2.20;99.90;;;;;;4977786;28;20027;-67
2020/12/09 11:26:59;;;;;;;47.22;18.23;;;2.20;99.90;;;;;;4977161;28;20415;-67
2020/12/09 11:29:27;;;;;;;45.35;17.58;;;2.20;99.90;;;;;;4979249;28;20415;-68
2020/12/09 11:31:55;;;;;;;49.53;17.65;;;2.30;99.90;;;;;;4980821;28;20042;-68
2020/12/09 11:34:23;;;;;;;41.72;18.02;;;2.30;99.90;;;;;;4980920;28;20050;-69
2020/12/09 11:36:57;;;;;;;44.30;16.88;;;2.40;99.90;;;;;;4981031;28;20029;-69
2020/12/09 11:39:25;;;;;;;46.75;18.55;;;2.40;99.90;;;;;;4980865;28;20101;-69
2020/12/09 11:41:58;;;;;;;46.58;18.60;;;2.40;99.90;;;;;;4981120;28;20022;-69
2020/12/09 11:44:25;;;;;;;51.90;19.90;;;2.50;99.90;;;;;;4980537;28;20114;-69
2020/12/09 11:46:53;;;;;;;49.05;18.33;;;2.50;99.90;;;;;;4980531;28;20018;-69
2020/12/09 11:49:20;;;;;;;52.35;18.42;;;2.50;99.90;;;;;;4980637;28;20395;-69
2020/12/09 11:51:51;;;;;;;56.28;23.00;;;2.50;99.90;;;;;;4981266;28;20323;-69
2020/12/09 11:54:19;;;;;;;48.47;18.05;;;2.50;99.90;;;;;;4980410;28;20038;-69
2020/12/09 11:56:47;;;;;;;100.03;37.10;;;2.50;99.90;;;;;;4980360;28;20382;-69
2020/12/09 11:59:15;;;;;;;137.98;51.25;;;2.50;99.90;;;;;;4995290;28;20490;-69
2020/12/09 12:01:42;;;;;;;62.97;21.58;;;2.50;99.90;;;;;;4980779;28;20487;-68
2020/12/09 12:04:10;;;;;;;56.83;19.08;;;2.50;99.90;;;;;;4980265;28;20426;-69
2020/12/09 12:06:39;;;;;;;63.00;27.67;;;2.50;99.90;;;;;;4980509;28;20033;-69
2020/12/09 12:09:07;;;;;;;57.05;20.83;;;2.50;99.90;;;;;;4995516;28;20026;-68
2020/12/09 12:11:35;;;;;;;58.30;20.40;;;2.50;99.90;;;;;;4980412;28;20030;-68
2020/12/09 12:14:03;;;;;;;50.55;18.10;;;2.60;99.90;;;;;;4995097;28;20031;-68
2020/12/09 12:16:30;;;;;;;51.70;18.20;;;2.60;99.90;;;;;;4980059;28;20077;-68
2020/12/09 12:18:58;;;;;;;57.20;19.42;;;2.60;99.90;;;;;;4995343;28;20031;-68
2020/12/09 12:21:26;;;;;;;54.75;19.05;;;2.60;99.90;;;;;;4980005;28;20027;-68
2020/12/09 12:23:54;;;;;;;59.30;19.45;;;2.60;99.90;;;;;;4979964;28;20027;-68
2020/12/09 12:26:22;;;;;;;56.55;18.98;;;2.60;99.90;;;;;;4980404;28;20319;-68
2020/12/09 12:28:51;;;;;;;59.42;21.17;;;2.60;99.90;;;;;;4979999;28;20037;-68
2020/12/09 12:31:20;;;;;;;54.88;17.95;;;2.60;99.90;;;;;;4979804;28;20019;-68
2020/12/09 12:33:48;;;;;;;54.05;19.10;;;2.70;99.90;;;;;;4979775;28;20018;-68
2020/12/09 12:36:16;;;;;;;58.10;20.58;;;2.70;99.90;;;;;;4994806;28;20069;-68
2020/12/09 12:38:43;;;;;;;61.35;21.55;;;2.70;99.90;;;;;;4979627;28;20015;-69
2020/12/09 12:41:11;;;;;;;51.63;19.30;;;2.70;99.90;;;;;;4993866;28;20038;-68
2020/12/09 12:43:40;;;;;;;56.95;19.65;;;2.70;99.90;;;;;;4980064;28;20049;-68
2020/12/09 12:46:14;;;;;;;55.83;19.23;;;2.70;99.90;;;;;;4979836;28;20027;-68
2020/12/09 12:48:47;;;;;;;52.55;19.08;;;2.70;99.90;;;;;;4979497;28;20026;-69
2020/12/09 12:51:24;;;;;;;49.55;17.35;;;2.70;99.90;;;;;;4979881;28;20034;-68
2020/12/09 12:53:52;;;;;;;55.50;19.42;;;2.70;99.90;;;;;;4979081;28;20367;-69
2020/12/09 12:56:20;;;;;;;59.53;19.50;;;2.70;99.90;;;;;;4994425;28;20030;-68